createdAt,value
2019-02-24T00:03:44.959Z,72.7
2019-02-24T00:08:40.955Z,73.7
2019-02-24T00:13:36.545Z,71.9
2019-02-24T00:18:32.887Z,72.9
2019-02-24T00:23:29.529Z,73.1
2019-02-24T00:28:25.812Z,71.6
2019-02-24T00:33:21.975Z,71.2
2019-02-24T00:38:18.459Z,72.4
2019-02-24T00:43:14.845Z,71.2
2019-02-24T00:48:10.947Z,71.6
2019-02-24T00:53:07.126Z,71
2019-02-24T00:58:03.503Z,72.8
2019-02-24T01:02:59.687Z,73.5
2019-02-24T01:07:56.140Z,73.5
2019-02-24T01:12:51.776Z,73.4
2019-02-24T01:17:48.228Z,71.9
2019-02-24T01:22:44.659Z,70.3
2019-02-24T01:32:37.558Z,75.1
2019-02-24T01:37:34.038Z,73.4
2019-02-24T01:42:30.422Z,74.6
2019-02-24T01:47:26.487Z,74.2
2019-02-24T01:52:22.914Z,72.6
2019-02-24T02:02:15.819Z,75.5
2019-02-24T02:07:12.221Z,73.7
2019-02-24T02:12:08.343Z,74.4
2019-02-24T02:17:04.939Z,71.9
2019-02-24T02:22:00.712Z,73.7
2019-02-24T02:31:53.508Z,74
2019-02-24T02:36:50.080Z,74.3
2019-02-24T02:41:46.296Z,72.4
2019-02-24T02:46:42.571Z,72.1
2019-02-24T02:51:38.930Z,73.8
2019-02-24T02:56:35.362Z,73.3
2019-02-24T03:01:31.939Z,73.7
2019-02-24T03:06:28.153Z,72.8
2019-02-24T03:11:24.636Z,71.4
2019-02-24T03:16:23.245Z,72.6
2019-02-24T03:21:18.939Z,72.9
2019-02-24T03:26:15.080Z,73.6
2019-02-24T03:31:11.361Z,72.9
2019-02-24T03:36:08.102Z,72.9
2019-02-24T03:41:04.369Z,75.1
2019-02-24T03:46:00.774Z,74.1
2019-02-24T03:50:57.077Z,75.1
2019-02-24T03:55:53.670Z,73.8
2019-02-24T04:00:50.010Z,73.9
2019-02-24T04:05:46.405Z,75.1
2019-02-24T04:10:42.994Z,74.8
2019-02-24T04:15:39.503Z,73.9
2019-02-24T04:20:34.934Z,74.6
2019-02-24T04:25:31.615Z,73.6
2019-02-24T04:30:28.285Z,75.5
2019-02-24T04:35:24.831Z,73.9
2019-02-24T04:40:21.241Z,73.4
2019-02-24T04:45:17.614Z,74.2
2019-02-24T04:50:14.523Z,74.3
2019-02-24T04:55:10.641Z,75.3
2019-02-24T05:00:06.782Z,74.4
2019-02-24T05:05:03.432Z,74.7
2019-02-24T05:09:59.822Z,74.8
2019-02-24T05:14:56.112Z,74.2
2019-02-24T05:19:52.734Z,73.1
2019-02-24T05:24:49.207Z,73.2
2019-02-24T05:29:46.575Z,73.7
2019-02-24T05:34:42.836Z,73.5
2019-02-24T05:39:39.561Z,73.6
2019-02-24T05:44:36.162Z,72.9
2019-02-24T05:49:31.916Z,72.3
2019-02-24T05:54:28.142Z,73.7
2019-02-24T05:59:24.742Z,73.4
2019-02-24T06:04:21.499Z,70.4
2019-02-24T06:09:17.888Z,70.9
2019-02-24T06:14:14.649Z,69.6
2019-02-24T06:19:11.477Z,69.2
2019-02-24T06:24:07.985Z,69.7
2019-02-24T06:29:04.492Z,67.9
2019-02-24T06:34:01.045Z,70.7
2019-02-24T06:38:57.207Z,67.9
2019-02-24T06:43:54.191Z,67.7
2019-02-24T06:48:50.893Z,68.4
2019-02-24T06:53:47.622Z,66.6
2019-02-24T06:58:44.180Z,66.8
2019-02-24T07:03:40.604Z,65.2
2019-02-24T07:08:37.398Z,64.6
2019-02-24T07:13:34.098Z,64.3
2019-02-24T07:18:30.789Z,63.8
2019-02-24T07:23:27.229Z,63
2019-02-24T07:28:23.586Z,63.6
2019-02-24T07:33:20.197Z,63.9
2019-02-24T07:38:16.868Z,63.1
2019-02-24T07:43:13.303Z,63.5
2019-02-24T07:48:10.154Z,61.8
2019-02-24T07:53:06.738Z,62
2019-02-24T07:58:03.206Z,59.4
2019-02-24T08:02:58.784Z,62.5
2019-02-24T08:07:55.558Z,59.7
2019-02-24T08:12:52.184Z,58.8
2019-02-24T08:17:50.747Z,51.9
2019-02-24T08:22:47.977Z,55.8
2019-02-24T08:27:44.633Z,53
2019-02-24T08:32:42.276Z,49.5
2019-02-24T08:37:35.739Z,53.9
2019-02-24T08:42:35.755Z,51.5
2019-02-24T08:47:31.988Z,48
2019-02-24T08:52:27.883Z,46.2
2019-02-24T08:57:22.998Z,50.2
2019-02-24T09:02:20.488Z,43
2019-02-24T09:07:15.368Z,48.5
2019-02-24T09:12:11.906Z,47
2019-02-24T09:17:08.146Z,49.1
2019-02-24T09:22:04.045Z,47.5
2019-02-24T09:27:00.359Z,46
2019-02-24T09:31:57.647Z,48.8
2019-02-24T09:36:53.452Z,47.2
2019-02-24T09:41:51.759Z,41.3
2019-02-24T09:46:46.918Z,47.6
2019-02-24T09:51:42.814Z,47.3
2019-02-24T09:56:39.184Z,44
2019-02-24T10:01:36.889Z,44.5
2019-02-24T10:06:31.368Z,47.6
2019-02-24T10:11:26.850Z,49.5
2019-02-24T10:16:22.696Z,40.7
2019-02-24T10:21:20.208Z,42.8
2019-02-24T10:26:14.158Z,43.2
2019-02-24T10:31:20.265Z,44.5
2019-02-24T10:36:14.629Z,45.7
2019-02-24T10:41:11.099Z,44.5
2019-02-24T10:46:06.368Z,46.1
2019-02-24T10:51:01.417Z,46.1
2019-02-24T10:55:58.046Z,43.9
2019-02-24T11:00:53.720Z,45.5
2019-02-24T11:05:50.587Z,43.1
2019-02-24T11:10:45.866Z,41.9
2019-02-24T11:15:40.997Z,41.1
2019-02-24T11:20:38.099Z,38.4
2019-02-24T11:25:35.581Z,42.4
2019-02-24T11:30:32.305Z,42.4
2019-02-24T11:35:28.890Z,42.8
2019-02-24T11:40:24.880Z,39.4
2019-02-24T11:45:23.098Z,39.1
2019-02-24T11:50:20.064Z,41.1
2019-02-24T11:55:14.145Z,42.1
2019-02-24T12:00:11.454Z,37.6
2019-02-24T12:05:07.931Z,37.9
2019-02-24T12:10:05.188Z,43
2019-02-24T12:15:00.906Z,38.1
2019-02-24T12:19:57.794Z,41.2
2019-02-24T12:24:53.944Z,42.7
2019-02-24T12:29:49.721Z,43.8
2019-02-24T12:34:46.825Z,42.2
2019-02-24T12:39:41.592Z,41.3
2019-02-24T12:44:39.326Z,43.3
2019-02-24T12:49:36.198Z,43.8
2019-02-24T12:54:33.002Z,44.8
2019-02-24T12:59:29.673Z,43.9
2019-02-24T13:04:26.084Z,40.5
2019-02-24T13:09:22.220Z,44.7
2019-02-24T13:14:18.127Z,45.5
2019-02-24T13:19:15.507Z,44.8
2019-02-24T13:24:11.354Z,44.7
2019-02-24T13:29:08.863Z,42.9
2019-02-24T13:34:05.181Z,46.5
2019-02-24T13:39:01.827Z,47.8
2019-02-24T13:43:57.251Z,47.1
2019-02-24T13:48:53.149Z,46.8
2019-02-24T13:53:49.222Z,45.8
2019-02-24T13:58:45.901Z,47.5
2019-02-24T14:03:43.203Z,48.3
2019-02-24T14:08:40.042Z,48.9
2019-02-24T14:13:35.756Z,49.9
2019-02-24T14:18:32.470Z,47.7
2019-02-24T14:23:29.473Z,49.7
2019-02-24T14:28:26.045Z,51.4
2019-02-24T14:33:22.417Z,52.9
2019-02-24T14:38:18.868Z,52.5
2019-02-24T14:43:14.417Z,53.4
2019-02-24T14:48:11.005Z,52.1
2019-02-24T14:53:07.058Z,53.8
2019-02-24T14:58:03.026Z,53
2019-02-24T15:02:59.435Z,55.8
2019-02-24T15:07:55.874Z,53.7
2019-02-24T15:12:52.063Z,55.7
2019-02-24T15:17:48.035Z,54.9
2019-02-24T15:22:44.447Z,55.6
2019-02-24T15:27:40.836Z,58.4
2019-02-24T15:32:37.448Z,56.5
2019-02-24T15:37:33.874Z,57.7
2019-02-24T15:42:30.356Z,57.9
2019-02-24T15:47:26.794Z,55.6
2019-02-24T15:52:23.129Z,58.5
2019-02-24T15:57:19.676Z,59.4
2019-02-24T16:02:15.926Z,58.7
2019-02-24T16:07:12.085Z,61.2
2019-02-24T16:12:08.270Z,60.3
2019-02-24T16:17:04.753Z,60.3
2019-02-24T16:22:01.152Z,60
2019-02-24T16:26:57.724Z,63.8
2019-02-24T16:31:54.137Z,61
2019-02-24T16:36:50.710Z,63.1
2019-02-24T16:41:47.096Z,60.8
2019-02-24T16:46:43.451Z,64.9
2019-02-24T16:51:40.212Z,62.4
2019-02-24T16:56:36.338Z,65.4
2019-02-24T17:21:22.447Z,65.1
2019-02-24T17:26:18.321Z,65.4
2019-02-24T17:31:14.734Z,65.4
2019-02-24T17:36:11.161Z,65.2
2019-02-24T17:41:07.817Z,66.9
2019-02-24T17:46:04.223Z,62.8
2019-02-24T17:51:00.717Z,65.4
2019-02-24T17:55:57.056Z,63.5
2019-02-24T18:00:53.354Z,63
2019-02-24T18:05:49.775Z,63.7
2019-02-24T18:10:46.108Z,64.4
2019-02-24T18:15:42.673Z,65.1
2019-02-24T18:20:39.167Z,65.1
2019-02-24T18:25:35.647Z,62.7
2019-02-24T18:30:31.767Z,64.8
2019-02-24T18:35:28.030Z,65
2019-02-24T18:40:24.429Z,63.7
2019-02-24T18:45:21.020Z,64.9
2019-02-24T18:50:16.897Z,66.4
2019-02-24T18:55:13.405Z,65.3
2019-02-24T19:00:09.899Z,65
2019-02-24T19:05:06.410Z,67.1
2019-02-24T19:10:03.101Z,66.2
2019-02-24T19:14:59.342Z,66.7
2019-02-24T19:19:55.243Z,66.1
2019-02-24T19:24:51.774Z,66.4
2019-02-24T19:29:48.294Z,64.6
2019-02-24T19:34:44.623Z,66.9
2019-02-24T19:39:40.747Z,66.5
2019-02-24T19:44:36.963Z,67
2019-02-24T19:49:33.621Z,67.1
2019-02-24T19:54:30.044Z,65.2
2019-02-24T19:59:26.325Z,65.8
2019-02-24T20:04:23.046Z,66.5
2019-02-24T20:09:19.640Z,66.1
2019-02-24T20:14:16.008Z,67.6
2019-02-24T20:19:12.448Z,65.7
2019-02-24T20:24:08.724Z,65.4
2019-02-24T20:29:05.010Z,67.4
2019-02-24T20:34:01.608Z,68.2
2019-02-24T20:38:57.992Z,67.7
2019-02-24T20:43:54.542Z,67.1
2019-02-24T20:48:51.137Z,66.7
2019-02-24T20:53:46.951Z,68.6
2019-02-24T20:58:43.456Z,68.4
2019-02-24T21:03:39.914Z,69.2
2019-02-24T21:08:36.252Z,67.7
2019-02-24T21:13:32.818Z,68.5
2019-02-24T21:18:30.179Z,70.1
2019-02-24T21:23:26.101Z,68.5
2019-02-24T21:28:21.577Z,68.5
2019-02-24T21:33:17.815Z,66.7
2019-02-24T21:38:14.182Z,69.4
2019-02-24T21:43:10.628Z,68.7
2019-02-24T21:48:07.020Z,69.3
2019-02-24T21:53:03.603Z,68.5
2019-02-24T21:58:00.149Z,66.3
2019-02-24T22:02:56.423Z,69.6
2019-02-24T22:07:52.655Z,69.3
2019-02-24T22:12:49.087Z,68.9
2019-02-24T22:17:45.529Z,69.4
2019-02-24T22:22:42.082Z,70.7
2019-02-24T22:27:38.432Z,66.8
2019-02-24T22:32:35.166Z,67.3
2019-02-24T22:37:31.657Z,69.2
2019-02-24T22:42:28.016Z,69.1
2019-02-24T22:47:24.861Z,67.1
2019-02-24T22:52:20.920Z,66.1
2019-02-24T22:57:17.031Z,69.4
2019-02-24T23:02:13.463Z,67.8
2019-02-24T23:07:09.968Z,68.8
2019-02-24T23:12:06.087Z,69.1
2019-02-24T23:17:02.182Z,71.4
2019-02-24T23:21:58.661Z,72.2
2019-02-24T23:26:54.589Z,70.8
2019-02-24T23:31:51.182Z,70.9
2019-02-24T23:36:47.394Z,71.4
2019-02-24T23:41:43.910Z,70.4
2019-02-24T23:46:39.623Z,70.8
2019-02-24T23:51:36.044Z,69.4
2019-02-24T23:56:32.359Z,69.7
